sensor_id;sensor_type;location;lat;lon;timestamp;pressure;altitude;pressure_sealevel;temperature;humidity
47670;BME280;33408;52.062;11.722;2022-09-12T00:01:47;101383.44;;;13.63;100.00
47670;BME280;33408;52.062;11.722;2022-09-12T00:04:14;101379.88;;;13.67;100.00
47670;BME280;33408;52.062;11.722;2022-09-12T00:06:41;101390.25;;;13.70;100.00
47670;BME280;33408;52.062;11.722;2022-09-12T00:09:11;101385.38;;;13.53;100.00
47670;BME280;33408;52.062;11.722;2022-09-12T00:11:39;101391.50;;;13.50;100.00
47670;BME280;33408;52.062;11.722;2022-09-12T00:14:07;101395.81;;;13.52;100.00
47670;BME280;33408;52.062;11.722;2022-09-12T00:16:35;101392.63;;;13.37;100.00
47670;BME280;33408;52.062;11.722;2022-09-12T00:19:03;101396.06;;;13.39;100.00
47670;BME280;33408;52.062;11.722;2022-09-12T00:21:31;101404.06;;;13.28;100.00
47670;BME280;33408;52.062;11.722;2022-09-12T00:23:58;101392.66;;;13.36;100.00
47670;BME280;33408;52.062;11.722;2022-09-12T00:26:26;101395.34;;;13.29;100.00
47670;BME280;33408;52.062;11.722;2022-09-12T00:28:53;101399.97;;;13.13;100.00
47670;BME280;33408;52.062;11.722;2022-09-12T00:31:21;101397.41;;;13.12;100.00
47670;BME280;33408;52.062;11.722;2022-09-12T00:33:49;101397.44;;;13.10;100.00
47670;BME280;33408;52.062;11.722;2022-09-12T00:36:19;101401.53;;;13.24;100.00
47670;BME280;33408;52.062;11.722;2022-09-12T00:38:46;101397.13;;;13.27;100.00
47670;BME280;33408;52.062;11.722;2022-09-12T00:41:17;101400.50;;;13.34;100.00
47670;BME280;33408;52.062;11.722;2022-09-12T00:43:47;101399.50;;;13.41;100.00
47670;BME280;33408;52.062;11.722;2022-09-12T00:46:34;101398.41;;;13.53;100.00
47670;BME280;33408;52.062;11.722;2022-09-12T00:49:09;101395.53;;;13.67;100.00
47670;BME280;33408;52.062;11.722;2022-09-12T00:51:38;101395.31;;;13.76;100.00
47670;BME280;33408;52.062;11.722;2022-09-12T00:54:11;101400.47;;;13.79;100.00
47670;BME280;33408;52.062;11.722;2022-09-12T00:56:41;101399.72;;;13.73;100.00
47670;BME280;33408;52.062;11.722;2022-09-12T00:59:12;101398.06;;;13.70;100.00
47670;BME280;33408;52.062;11.722;2022-09-12T01:01:40;101403.13;;;13.76;100.00
47670;BME280;33408;52.062;11.722;2022-09-12T01:04:08;101396.91;;;13.83;100.00
47670;BME280;33408;52.062;11.722;2022-09-12T01:06:38;101395.91;;;13.89;100.00
47670;BME280;33408;52.062;11.722;2022-09-12T01:09:06;101388.28;;;13.81;100.00
47670;BME280;33408;52.062;11.722;2022-09-12T01:11:35;101383.25;;;13.72;100.00
47670;BME280;33408;52.062;11.722;2022-09-12T01:14:02;101382.34;;;13.73;100.00
47670;BME280;33408;52.062;11.722;2022-09-12T01:16:30;101382.28;;;13.76;100.00
47670;BME280;33408;52.062;11.722;2022-09-12T01:19:10;101376.06;;;13.83;100.00
47670;BME280;33408;52.062;11.722;2022-09-12T01:21:54;101366.19;;;13.98;100.00
47670;BME280;33408;52.062;11.722;2022-09-12T01:24:36;101368.16;;;13.88;100.00
47670;BME280;33408;52.062;11.722;2022-09-12T01:27:32;101378.66;;;13.83;100.00
47670;BME280;33408;52.062;11.722;2022-09-12T01:33:09;101373.69;;;13.73;100.00
47670;BME280;33408;52.062;11.722;2022-09-12T01:35:45;101378.72;;;13.80;100.00
47670;BME280;33408;52.062;11.722;2022-09-12T01:38:23;101364.72;;;13.84;100.00
47670;BME280;33408;52.062;11.722;2022-09-12T01:40:58;101375.00;;;13.92;100.00
47670;BME280;33408;52.062;11.722;2022-09-12T01:43:32;101360.09;;;13.97;100.00
47670;BME280;33408;52.062;11.722;2022-09-12T01:46:06;101365.22;;;14.02;100.00
47670;BME280;33408;52.062;11.722;2022-09-12T01:48:39;101364.44;;;13.98;100.00
47670;BME280;33408;52.062;11.722;2022-09-12T01:51:12;101353.41;;;13.85;100.00
47670;BME280;33408;52.062;11.722;2022-09-12T01:53:45;101358.25;;;14.04;100.00
47670;BME280;33408;52.062;11.722;2022-09-12T01:56:16;101352.84;;;14.10;100.00
47670;BME280;33408;52.062;11.722;2022-09-12T01:58:49;101351.75;;;14.20;100.00
47670;BME280;33408;52.062;11.722;2022-09-12T02:01:19;101349.16;;;14.20;100.00
47670;BME280;33408;52.062;11.722;2022-09-12T02:03:53;101353.69;;;14.12;100.00
47670;BME280;33408;52.062;11.722;2022-09-12T02:06:25;101346.75;;;14.11;100.00
47670;BME280;33408;52.062;11.722;2022-09-12T02:08:56;101340.16;;;13.96;100.00
47670;BME280;33408;52.062;11.722;2022-09-12T02:11:23;101333.56;;;13.81;100.00
47670;BME280;33408;52.062;11.722;2022-09-12T02:13:54;101332.59;;;13.84;100.00
47670;BME280;33408;52.062;11.722;2022-09-12T02:16:28;101336.50;;;13.64;100.00
47670;BME280;33408;52.062;11.722;2022-09-12T02:19:02;101345.41;;;13.56;100.00
47670;BME280;33408;52.062;11.722;2022-09-12T02:21:34;101344.19;;;13.71;100.00
47670;BME280;33408;52.062;11.722;2022-09-12T02:24:03;101338.97;;;13.72;100.00
47670;BME280;33408;52.062;11.722;2022-09-12T02:26:36;101344.28;;;13.66;100.00
47670;BME280;33408;52.062;11.722;2022-09-12T02:29:06;101348.59;;;13.68;100.00
47670;BME280;33408;52.062;11.722;2022-09-12T02:31:39;101346.88;;;13.67;100.00
47670;BME280;33408;52.062;11.722;2022-09-12T02:34:17;101343.88;;;13.44;100.00
47670;BME280;33408;52.062;11.722;2022-09-12T02:36:50;101331.75;;;13.44;100.00
47670;BME280;33408;52.062;11.722;2022-09-12T02:39:20;101332.59;;;13.45;100.00
47670;BME280;33408;52.062;11.722;2022-09-12T02:41:49;101330.97;;;13.38;100.00
47670;BME280;33408;52.062;11.722;2022-09-12T02:44:16;101328.69;;;13.21;100.00
47670;BME280;33408;52.062;11.722;2022-09-12T02:46:46;101331.38;;;13.16;100.00
47670;BME280;33408;52.062;11.722;2022-09-12T02:49:15;101328.94;;;13.08;100.00
47670;BME280;33408;52.062;11.722;2022-09-12T02:51:43;101330.84;;;12.99;100.00
47670;BME280;33408;52.062;11.722;2022-09-12T02:54:11;101338.66;;;12.99;100.00
47670;BME280;33408;52.062;11.722;2022-09-12T02:56:41;101332.75;;;12.90;100.00
47670;BME280;33408;52.062;11.722;2022-09-12T02:59:10;101339.66;;;12.93;100.00
47670;BME280;33408;52.062;11.722;2022-09-12T03:01:54;101334.50;;;12.90;100.00
47670;BME280;33408;52.062;11.722;2022-09-12T03:04:46;101342.66;;;12.68;100.00
47670;BME280;33408;52.062;11.722;2022-09-12T03:07:22;101341.81;;;12.68;100.00
47670;BME280;33408;52.062;11.722;2022-09-12T03:09:58;101336.47;;;12.77;100.00
47670;BME280;33408;52.062;11.722;2022-09-12T03:12:39;101334.59;;;12.84;100.00
47670;BME280;33408;52.062;11.722;2022-09-12T03:15:18;101329.50;;;12.77;100.00
47670;BME280;33408;52.062;11.722;2022-09-12T03:17:58;101331.31;;;12.74;100.00
47670;BME280;33408;52.062;11.722;2022-09-12T03:20:40;101324.69;;;12.56;100.00
47670;BME280;33408;52.062;11.722;2022-09-12T03:23:17;101312.63;;;12.50;100.00
47670;BME280;33408;52.062;11.722;2022-09-12T03:25:48;101319.75;;;12.39;100.00
47670;BME280;33408;52.062;11.722;2022-09-12T03:28:16;101323.38;;;12.30;100.00
47670;BME280;33408;52.062;11.722;2022-09-12T03:30:46;101322.84;;;12.08;100.00
47670;BME280;33408;52.062;11.722;2022-09-12T03:33:14;101317.91;;;11.88;100.00
47670;BME280;33408;52.062;11.722;2022-09-12T03:35:43;101318.44;;;12.13;100.00
47670;BME280;33408;52.062;11.722;2022-09-12T03:38:10;101325.44;;;12.08;100.00
47670;BME280;33408;52.062;11.722;2022-09-12T03:40:38;101320.44;;;11.96;100.00
47670;BME280;33408;52.062;11.722;2022-09-12T03:43:05;101324.50;;;12.12;100.00
47670;BME280;33408;52.062;11.722;2022-09-12T03:45:33;101327.09;;;12.14;100.00
47670;BME280;33408;52.062;11.722;2022-09-12T03:48:00;101334.06;;;12.12;100.00
47670;BME280;33408;52.062;11.722;2022-09-12T03:50:26;101329.56;;;12.21;100.00
47670;BME280;33408;52.062;11.722;2022-09-12T03:52:54;101329.88;;;12.03;100.00
47670;BME280;33408;52.062;11.722;2022-09-12T03:55:23;101337.47;;;12.14;100.00
47670;BME280;33408;52.062;11.722;2022-09-12T03:57:51;101336.34;;;11.71;100.00
47670;BME280;33408;52.062;11.722;2022-09-12T04:00:18;101337.47;;;11.52;100.00
47670;BME280;33408;52.062;11.722;2022-09-12T04:02:45;101338.78;;;11.83;100.00
47670;BME280;33408;52.062;11.722;2022-09-12T04:05:11;101346.38;;;11.97;100.00
47670;BME280;33408;52.062;11.722;2022-09-12T04:07:38;101343.00;;;11.92;100.00
47670;BME280;33408;52.062;11.722;2022-09-12T04:10:06;101345.59;;;11.91;100.00
47670;BME280;33408;52.062;11.722;2022-09-12T04:12:33;101346.72;;;11.73;100.00
47670;BME280;33408;52.062;11.722;2022-09-12T04:15:00;101343.34;;;11.64;100.00
47670;BME280;33408;52.062;11.722;2022-09-12T04:17:26;101348.50;;;11.69;100.00
47670;BME280;33408;52.062;11.722;2022-09-12T04:19:53;101340.53;;;11.80;100.00
47670;BME280;33408;52.062;11.722;2022-09-12T04:22:19;101340.56;;;11.78;100.00
47670;BME280;33408;52.062;11.722;2022-09-12T04:24:46;101344.75;;;11.92;100.00
47670;BME280;33408;52.062;11.722;2022-09-12T04:27:14;101338.06;;;11.74;100.00
47670;BME280;33408;52.062;11.722;2022-09-12T04:29:40;101345.22;;;11.55;100.00
47670;BME280;33408;52.062;11.722;2022-09-12T04:32:07;101344.50;;;11.42;100.00
47670;BME280;33408;52.062;11.722;2022-09-12T04:34:33;101346.22;;;11.41;100.00
47670;BME280;33408;52.062;11.722;2022-09-12T04:37:00;101342.53;;;11.61;100.00
47670;BME280;33408;52.062;11.722;2022-09-12T04:39:26;101347.66;;;11.65;100.00
47670;BME280;33408;52.062;11.722;2022-09-12T04:41:53;101353.66;;;11.72;100.00
47670;BME280;33408;52.062;11.722;2022-09-12T04:44:21;101351.84;;;11.77;100.00
47670;BME280;33408;52.062;11.722;2022-09-12T04:46:48;101350.13;;;11.75;100.00
47670;BME280;33408;52.062;11.722;2022-09-12T04:49:15;101345.00;;;11.70;100.00
47670;BME280;33408;52.062;11.722;2022-09-12T04:51:44;101349.28;;;11.76;100.00
47670;BME280;33408;52.062;11.722;2022-09-12T04:54:12;101347.47;;;11.79;100.00
47670;BME280;33408;52.062;11.722;2022-09-12T04:56:40;101349.34;;;11.70;100.00
47670;BME280;33408;52.062;11.722;2022-09-12T04:59:07;101351.16;;;11.63;100.00
47670;BME280;33408;52.062;11.722;2022-09-12T05:01:35;101349.34;;;11.70;100.00
47670;BME280;33408;52.062;11.722;2022-09-12T05:04:02;101351.28;;;11.54;100.00
47670;BME280;33408;52.062;11.722;2022-09-12T05:06:31;101349.94;;;11.19;100.00
47670;BME280;33408;52.062;11.722;2022-09-12T05:08:59;101343.78;;;11.30;100.00
47670;BME280;33408;52.062;11.722;2022-09-12T05:11:27;101341.84;;;11.48;100.00
47670;BME280;33408;52.062;11.722;2022-09-12T05:13:55;101345.16;;;11.61;100.00
47670;BME280;33408;52.062;11.722;2022-09-12T05:16:23;101338.94;;;11.71;100.00
47670;BME280;33408;52.062;11.722;2022-09-12T05:18:52;101333.56;;;11.85;100.00
47670;BME280;33408;52.062;11.722;2022-09-12T05:21:20;101340.50;;;11.83;100.00
47670;BME280;33408;52.062;11.722;2022-09-12T05:23:50;101346.44;;;11.94;100.00
47670;BME280;33408;52.062;11.722;2022-09-12T05:26:17;101343.16;;;11.77;100.00
47670;BME280;33408;52.062;11.722;2022-09-12T05:28:45;101358.91;;;11.67;100.00
47670;BME280;33408;52.062;11.722;2022-09-12T05:31:13;101359.94;;;11.53;100.00
47670;BME280;33408;52.062;11.722;2022-09-12T05:33:42;101360.56;;;11.72;100.00
47670;BME280;33408;52.062;11.722;2022-09-12T05:36:12;101365.94;;;11.58;100.00
47670;BME280;33408;52.062;11.722;2022-09-12T05:38:39;101361.50;;;11.67;100.00
47670;BME280;33408;52.062;11.722;2022-09-12T05:41:07;101367.06;;;12.07;100.00
47670;BME280;33408;52.062;11.722;2022-09-12T05:43:36;101367.84;;;12.12;100.00
47670;BME280;33408;52.062;11.722;2022-09-12T05:46:04;101362.22;;;12.38;100.00
47670;BME280;33408;52.062;11.722;2022-09-12T05:48:33;101365.50;;;12.51;100.00
47670;BME280;33408;52.062;11.722;2022-09-12T05:51:00;101371.44;;;12.61;100.00
47670;BME280;33408;52.062;11.722;2022-09-12T05:53:29;101369.72;;;12.58;100.00
47670;BME280;33408;52.062;11.722;2022-09-12T05:56:04;101372.91;;;12.75;100.00
47670;BME280;33408;52.062;11.722;2022-09-12T05:58:32;101374.59;;;12.78;100.00
47670;BME280;33408;52.062;11.722;2022-09-12T06:01:03;101376.84;;;12.98;100.00
47670;BME280;33408;52.062;11.722;2022-09-12T06:03:31;101376.25;;;13.29;100.00
47670;BME280;33408;52.062;11.722;2022-09-12T06:06:01;101375.06;;;13.47;100.00
47670;BME280;33408;52.062;11.722;2022-09-12T06:08:29;101387.72;;;13.67;100.00
47670;BME280;33408;52.062;11.722;2022-09-12T06:11:00;101388.16;;;13.44;100.00
47670;BME280;33408;52.062;11.722;2022-09-12T06:13:27;101385.16;;;13.64;100.00
47670;BME280;33408;52.062;11.722;2022-09-12T06:15:54;101385.84;;;13.72;100.00
47670;BME280;33408;52.062;11.722;2022-09-12T06:18:20;101374.72;;;14.04;100.00
47670;BME280;33408;52.062;11.722;2022-09-12T06:20:47;101378.38;;;14.35;100.00
47670;BME280;33408;52.062;11.722;2022-09-12T06:23:13;101373.47;;;14.57;100.00
47670;BME280;33408;52.062;11.722;2022-09-12T06:25:46;101378.53;;;14.65;100.00
47670;BME280;33408;52.062;11.722;2022-09-12T06:28:13;101378.22;;;14.41;100.00
47670;BME280;33408;52.062;11.722;2022-09-12T06:30:40;101376.28;;;14.49;100.00
47670;BME280;33408;52.062;11.722;2022-09-12T06:33:07;101376.31;;;14.84;100.00
47670;BME280;33408;52.062;11.722;2022-09-12T06:35:35;101373.25;;;15.02;100.00
47670;BME280;33408;52.062;11.722;2022-09-12T06:38:01;101370.66;;;15.01;100.00
47670;BME280;33408;52.062;11.722;2022-09-12T06:40:28;101370.06;;;15.22;100.00
47670;BME280;33408;52.062;11.722;2022-09-12T06:42:56;101369.28;;;15.20;100.00
47670;BME280;33408;52.062;11.722;2022-09-12T06:45:23;101362.03;;;15.30;100.00
47670;BME280;33408;52.062;11.722;2022-09-12T06:47:50;101367.59;;;15.49;100.00
47670;BME280;33408;52.062;11.722;2022-09-12T06:50:16;101371.94;;;15.80;100.00
47670;BME280;33408;52.062;11.722;2022-09-12T06:52:43;101366.91;;;15.72;100.00
47670;BME280;33408;52.062;11.722;2022-09-12T06:55:09;101364.25;;;15.74;100.00
47670;BME280;33408;52.062;11.722;2022-09-12T06:57:36;101371.19;;;15.75;100.00
47670;BME280;33408;52.062;11.722;2022-09-12T07:00:05;101368.63;;;15.73;100.00
47670;BME280;33408;52.062;11.722;2022-09-12T07:02:32;101357.38;;;15.69;100.00
47670;BME280;33408;52.062;11.722;2022-09-12T07:04:58;101360.34;;;15.89;100.00
47670;BME280;33408;52.062;11.722;2022-09-12T07:07:25;101357.19;;;15.77;100.00
47670;BME280;33408;52.062;11.722;2022-09-12T07:09:52;101358.06;;;16.06;100.00
47670;BME280;33408;52.062;11.722;2022-09-12T07:12:18;101353.63;;;16.36;100.00
47670;BME280;33408;52.062;11.722;2022-09-12T07:14:45;101356.25;;;16.63;100.00
47670;BME280;33408;52.062;11.722;2022-09-12T07:17:13;101359.16;;;16.79;100.00
47670;BME280;33408;52.062;11.722;2022-09-12T07:19:39;101355.09;;;16.97;100.00
47670;BME280;33408;52.062;11.722;2022-09-12T07:22:06;101360.25;;;17.00;100.00
47670;BME280;33408;52.062;11.722;2022-09-12T07:24:32;101353.59;;;16.90;100.00
47670;BME280;33408;52.062;11.722;2022-09-12T07:26:59;101362.09;;;16.97;100.00
47670;BME280;33408;52.062;11.722;2022-09-12T07:29:25;101350.09;;;17.14;100.00
47670;BME280;33408;52.062;11.722;2022-09-12T07:31:52;101349.81;;;17.22;100.00
47670;BME280;33408;52.062;11.722;2022-09-12T07:34:20;101351.03;;;17.37;100.00
47670;BME280;33408;52.062;11.722;2022-09-12T07:36:47;101346.44;;;17.44;100.00
47670;BME280;33408;52.062;11.722;2022-09-12T07:39:13;101349.66;;;17.50;100.00
47670;BME280;33408;52.062;11.722;2022-09-12T07:41:40;101343.25;;;17.81;100.00
47670;BME280;33408;52.062;11.722;2022-09-12T07:44:07;101345.94;;;17.80;100.00
47670;BME280;33408;52.062;11.722;2022-09-12T07:46:33;101341.16;;;17.91;100.00
47670;BME280;33408;52.062;11.722;2022-09-12T07:49:00;101347.34;;;17.89;100.00
47670;BME280;33408;52.062;11.722;2022-09-12T07:51:29;101348.44;;;17.59;100.00
47670;BME280;33408;52.062;11.722;2022-09-12T07:53:56;101344.44;;;17.96;100.00
47670;BME280;33408;52.062;11.722;2022-09-12T07:56:23;101339.78;;;18.03;100.00
47670;BME280;33408;52.062;11.722;2022-09-12T07:58:50;101339.84;;;18.01;100.00
47670;BME280;33408;52.062;11.722;2022-09-12T08:01:18;101340.19;;;18.36;100.00
47670;BME280;33408;52.062;11.722;2022-09-12T08:03:46;101341.81;;;18.18;100.00
47670;BME280;33408;52.062;11.722;2022-09-12T08:06:15;101344.13;;;18.26;100.00
47670;BME280;33408;52.062;11.722;2022-09-12T08:08:46;101349.94;;;18.55;100.00
47670;BME280;33408;52.062;11.722;2022-09-12T08:11:14;101350.19;;;18.49;100.00
47670;BME280;33408;52.062;11.722;2022-09-12T08:13:42;101343.28;;;18.46;100.00
47670;BME280;33408;52.062;11.722;2022-09-12T08:16:11;101350.16;;;18.06;100.00
47670;BME280;33408;52.062;11.722;2022-09-12T08:18:38;101352.63;;;18.74;100.00
47670;BME280;33408;52.062;11.722;2022-09-12T08:21:06;101355.34;;;18.72;100.00
47670;BME280;33408;52.062;11.722;2022-09-12T08:23:33;101350.88;;;18.74;100.00
47670;BME280;33408;52.062;11.722;2022-09-12T08:26:03;101350.66;;;19.20;100.00
47670;BME280;33408;52.062;11.722;2022-09-12T08:28:32;101354.50;;;18.92;100.00
47670;BME280;33408;52.062;11.722;2022-09-12T08:30:59;101347.19;;;18.99;100.00
47670;BME280;33408;52.062;11.722;2022-09-12T08:33:27;101351.53;;;19.21;100.00
47670;BME280;33408;52.062;11.722;2022-09-12T08:36:02;101346.41;;;19.37;99.68
47670;BME280;33408;52.062;11.722;2022-09-12T08:38:29;101345.47;;;19.19;99.66
47670;BME280;33408;52.062;11.722;2022-09-12T08:41:01;101354.81;;;19.45;99.14
47670;BME280;33408;52.062;11.722;2022-09-12T08:43:39;101351.44;;;19.41;97.87
47670;BME280;33408;52.062;11.722;2022-09-12T08:46:13;101352.25;;;20.00;94.59
47670;BME280;33408;52.062;11.722;2022-09-12T08:48:44;101351.88;;;19.51;94.50
47670;BME280;33408;52.062;11.722;2022-09-12T08:51:14;101351.22;;;19.27;96.35
47670;BME280;33408;52.062;11.722;2022-09-12T08:53:43;101342.56;;;19.25;96.35
47670;BME280;33408;52.062;11.722;2022-09-12T08:56:13;101345.56;;;19.55;95.57
47670;BME280;33408;52.062;11.722;2022-09-12T08:58:43;101342.00;;;19.94;92.39
47670;BME280;33408;52.062;11.722;2022-09-12T09:01:17;101338.88;;;19.86;93.07
47670;BME280;33408;52.062;11.722;2022-09-12T09:04:12;101344.19;;;19.65;92.72
47670;BME280;33408;52.062;11.722;2022-09-12T09:10:07;101340.84;;;20.89;83.30
47670;BME280;33408;52.062;11.722;2022-09-12T09:12:48;101334.72;;;20.53;84.88
47670;BME280;33408;52.062;11.722;2022-09-12T09:15:32;101330.97;;;20.05;86.79
47670;BME280;33408;52.062;11.722;2022-09-12T09:18:06;101326.53;;;19.69;89.42
47670;BME280;33408;52.062;11.722;2022-09-12T09:20:40;101327.16;;;19.93;88.70
47670;BME280;33408;52.062;11.722;2022-09-12T09:23:13;101324.75;;;19.89;89.44
47670;BME280;33408;52.062;11.722;2022-09-12T09:25:47;101323.19;;;20.38;87.76
47670;BME280;33408;52.062;11.722;2022-09-12T09:28:21;101320.72;;;20.53;84.48
47670;BME280;33408;52.062;11.722;2022-09-12T09:30:51;101324.81;;;20.76;83.80
47670;BME280;33408;52.062;11.722;2022-09-12T09:33:20;101317.38;;;20.67;83.43
47670;BME280;33408;52.062;11.722;2022-09-12T09:35:53;101326.97;;;20.85;84.50
47670;BME280;33408;52.062;11.722;2022-09-12T09:38:24;101317.44;;;20.83;82.05
47670;BME280;33408;52.062;11.722;2022-09-12T09:41:06;101313.53;;;21.23;78.97
47670;BME280;33408;52.062;11.722;2022-09-12T09:43:37;101313.88;;;21.17;79.55
47670;BME280;33408;52.062;11.722;2022-09-12T09:46:04;101315.47;;;21.53;76.51
47670;BME280;33408;52.062;11.722;2022-09-12T09:48:32;101317.06;;;21.40;75.69
47670;BME280;33408;52.062;11.722;2022-09-12T09:51:02;101316.69;;;21.46;77.65
47670;BME280;33408;52.062;11.722;2022-09-12T09:53:35;101311.13;;;21.68;78.09
47670;BME280;33408;52.062;11.722;2022-09-12T09:56:08;101302.66;;;21.45;76.80
47670;BME280;33408;52.062;11.722;2022-09-12T09:58:38;101300.09;;;21.28;77.95
47670;BME280;33408;52.062;11.722;2022-09-12T10:01:11;101297.69;;;20.91;82.06
47670;BME280;33408;52.062;11.722;2022-09-12T10:03:46;101289.94;;;21.70;76.00
47670;BME280;33408;52.062;11.722;2022-09-12T10:06:22;101296.84;;;21.56;74.10
47670;BME280;33408;52.062;11.722;2022-09-12T10:08:50;101289.03;;;22.01;73.39
47670;BME280;33408;52.062;11.722;2022-09-12T10:11:19;101289.75;;;21.73;73.40
47670;BME280;33408;52.062;11.722;2022-09-12T10:13:57;101297.84;;;21.85;73.33
47670;BME280;33408;52.062;11.722;2022-09-12T10:16:26;101286.31;;;22.33;72.53
47670;BME280;33408;52.062;11.722;2022-09-12T10:18:54;101280.69;;;22.39;70.27
47670;BME280;33408;52.062;11.722;2022-09-12T10:21:28;101279.91;;;22.07;70.95
47670;BME280;33408;52.062;11.722;2022-09-12T10:24:19;101288.78;;;21.26;75.10
47670;BME280;33408;52.062;11.722;2022-09-12T10:26:49;101284.09;;;21.31;76.25
47670;BME280;33408;52.062;11.722;2022-09-12T10:29:22;101279.38;;;21.54;75.46
47670;BME280;33408;52.062;11.722;2022-09-12T10:31:52;101279.28;;;21.55;74.67
47670;BME280;33408;52.062;11.722;2022-09-12T10:34:23;101278.94;;;21.77;73.43
47670;BME280;33408;52.062;11.722;2022-09-12T10:36:53;101276.03;;;21.98;72.52
47670;BME280;33408;52.062;11.722;2022-09-12T10:39:24;101269.13;;;21.79;70.64
47670;BME280;33408;52.062;11.722;2022-09-12T10:41:50;101264.03;;;21.76;69.94
47670;BME280;33408;52.062;11.722;2022-09-12T10:44:23;101268.22;;;21.80;69.29
47670;BME280;33408;52.062;11.722;2022-09-12T10:46:51;101264.75;;;21.64;68.79
47670;BME280;33408;52.062;11.722;2022-09-12T10:49:24;101269.38;;;22.21;68.09
47670;BME280;33408;52.062;11.722;2022-09-12T10:51:54;101253.50;;;22.37;69.41
47670;BME280;33408;52.062;11.722;2022-09-12T10:54:22;101257.97;;;22.51;67.14
47670;BME280;33408;52.062;11.722;2022-09-12T10:57:05;101252.44;;;21.95;68.76
47670;BME280;33408;52.062;11.722;2022-09-12T10:59:49;101251.72;;;22.52;66.89
47670;BME280;33408;52.062;11.722;2022-09-12T11:02:26;101257.66;;;22.55;67.85
47670;BME280;33408;52.062;11.722;2022-09-12T11:05:00;101252.38;;;22.99;65.55
47670;BME280;33408;52.062;11.722;2022-09-12T11:07:38;101254.28;;;22.97;63.81
47670;BME280;33408;52.062;11.722;2022-09-12T11:10:19;101248.72;;;22.87;62.11
47670;BME280;33408;52.062;11.722;2022-09-12T11:12:51;101249.44;;;22.31;64.25
47670;BME280;33408;52.062;11.722;2022-09-12T11:15:31;101247.78;;;22.45;63.98
47670;BME280;33408;52.062;11.722;2022-09-12T11:18:10;101239.28;;;23.11;62.07
47670;BME280;33408;52.062;11.722;2022-09-12T11:21:01;101239.28;;;22.83;60.41
47670;BME280;33408;52.062;11.722;2022-09-12T11:26:54;101240.88;;;22.56;61.09
47670;BME280;33408;52.062;11.722;2022-09-12T11:29:38;101235.03;;;22.94;61.04
47670;BME280;33408;52.062;11.722;2022-09-12T11:32:23;101234.25;;;22.78;59.94
47670;BME280;33408;52.062;11.722;2022-09-12T11:35:04;101229.25;;;23.02;60.41
47670;BME280;33408;52.062;11.722;2022-09-12T11:37:43;101226.81;;;23.14;59.26
47670;BME280;33408;52.062;11.722;2022-09-12T11:40:24;101226.97;;;23.52;57.67
47670;BME280;33408;52.062;11.722;2022-09-12T11:42:57;101223.75;;;23.05;58.17
47670;BME280;33408;52.062;11.722;2022-09-12T11:45:28;101219.16;;;22.37;60.14
47670;BME280;33408;52.062;11.722;2022-09-12T11:48:02;101214.19;;;22.61;60.45
47670;BME280;33408;52.062;11.722;2022-09-12T11:50:31;101222.94;;;22.90;58.16
47670;BME280;33408;52.062;11.722;2022-09-12T11:53:02;101216.66;;;23.62;56.23
47670;BME280;33408;52.062;11.722;2022-09-12T11:55:37;101212.56;;;22.87;55.97
47670;BME280;33408;52.062;11.722;2022-09-12T11:58:10;101207.25;;;23.02;55.38
47670;BME280;33408;52.062;11.722;2022-09-12T12:00:41;101209.53;;;23.49;54.54
47670;BME280;33408;52.062;11.722;2022-09-12T12:03:15;101205.59;;;23.28;54.52
47670;BME280;33408;52.062;11.722;2022-09-12T12:05:46;101215.19;;;23.43;54.74
47670;BME280;33408;52.062;11.722;2022-09-12T12:08:16;101210.41;;;23.36;54.60
47670;BME280;33408;52.062;11.722;2022-09-12T12:10:49;101206.53;;;23.41;53.38
47670;BME280;33408;52.062;11.722;2022-09-12T12:13:18;101205.78;;;23.79;54.08
47670;BME280;33408;52.062;11.722;2022-09-12T12:15:49;101203.88;;;23.41;53.67
47670;BME280;33408;52.062;11.722;2022-09-12T12:18:21;101196.31;;;22.93;55.49
47670;BME280;33408;52.062;11.722;2022-09-12T12:20:49;101198.84;;;23.24;54.59
47670;BME280;33408;52.062;11.722;2022-09-12T12:23:26;101192.69;;;23.51;52.26
47670;BME280;33408;52.062;11.722;2022-09-12T12:25:55;101198.84;;;23.24;51.66
47670;BME280;33408;52.062;11.722;2022-09-12T12:28:58;101193.75;;;23.06;51.92
47670;BME280;33408;52.062;11.722;2022-09-12T12:31:25;101196.13;;;22.97;52.65
47670;BME280;33408;52.062;11.722;2022-09-12T12:34:02;101193.84;;;23.05;52.46
47670;BME280;33408;52.062;11.722;2022-09-12T12:36:33;101184.09;;;23.05;53.67
47670;BME280;33408;52.062;11.722;2022-09-12T12:42:04;101186.00;;;23.03;52.71
47670;BME280;33408;52.062;11.722;2022-09-12T12:44:47;101186.50;;;22.81;53.12
47670;BME280;33408;52.062;11.722;2022-09-12T12:47:17;101187.94;;;22.87;52.36
47670;BME280;33408;52.062;11.722;2022-09-12T12:49:51;101175.91;;;23.10;51.61
47670;BME280;33408;52.062;11.722;2022-09-12T12:52:18;101175.91;;;22.95;53.31
47670;BME280;33408;52.062;11.722;2022-09-12T12:54:51;101181.91;;;22.85;53.72
47670;BME280;33408;52.062;11.722;2022-09-12T12:57:37;101176.63;;;22.56;54.54
47670;BME280;33408;52.062;11.722;2022-09-12T13:00:23;101172.78;;;23.03;54.02
47670;BME280;33408;52.062;11.722;2022-09-12T13:02:55;101175.50;;;23.16;52.49
47670;BME280;33408;52.062;11.722;2022-09-12T13:05:26;101174.28;;;23.22;51.42